sensor_id;sensor_type;location;lat;lon;timestamp;P1;durP1;ratioP1;P2;durP2;ratioP2
34711;SDS011;20941;42.408;25.634;2023-09-08T00:00:02;9.38;;;6.07;;
34711;SDS011;20941;42.408;25.634;2023-09-08T00:02:28;11.65;;;6.63;;
34711;SDS011;20941;42.408;25.634;2023-09-08T00:04:54;10.35;;;6.35;;
34711;SDS011;20941;42.408;25.634;2023-09-08T00:07:19;11.95;;;6.38;;
34711;SDS011;20941;42.408;25.634;2023-09-08T00:09:45;13.35;;;8.00;;
34711;SDS011;20941;42.408;25.634;2023-09-08T00:12:10;15.43;;;9.55;;
34711;SDS011;20941;42.408;25.634;2023-09-08T00:14:36;7.15;;;5.57;;
34711;SDS011;20941;42.408;25.634;2023-09-08T00:17:01;9.07;;;5.80;;
34711;SDS011;20941;42.408;25.634;2023-09-08T00:19:26;8.35;;;5.80;;
34711;SDS011;20941;42.408;25.634;2023-09-08T00:21:52;13.70;;;5.45;;
34711;SDS011;20941;42.408;25.634;2023-09-08T00:24:17;9.85;;;5.88;;
34711;SDS011;20941;42.408;25.634;2023-09-08T00:26:43;10.05;;;5.85;;
34711;SDS011;20941;42.408;25.634;2023-09-08T00:29:09;9.13;;;5.68;;
34711;SDS011;20941;42.408;25.634;2023-09-08T00:31:34;10.07;;;5.82;;
34711;SDS011;20941;42.408;25.634;2023-09-08T00:33:59;9.80;;;6.13;;
34711;SDS011;20941;42.408;25.634;2023-09-08T00:36:25;13.02;;;6.35;;
34711;SDS011;20941;42.408;25.634;2023-09-08T00:38:50;10.05;;;6.13;;
34711;SDS011;20941;42.408;25.634;2023-09-08T00:41:15;12.93;;;5.95;;
34711;SDS011;20941;42.408;25.634;2023-09-08T00:43:41;9.45;;;5.70;;
34711;SDS011;20941;42.408;25.634;2023-09-08T00:46:06;8.75;;;6.03;;
34711;SDS011;20941;42.408;25.634;2023-09-08T00:48:32;9.63;;;5.55;;
34711;SDS011;20941;42.408;25.634;2023-09-08T00:50:57;10.02;;;5.85;;
34711;SDS011;20941;42.408;25.634;2023-09-08T00:53:22;10.10;;;5.70;;
34711;SDS011;20941;42.408;25.634;2023-09-08T00:55:48;8.75;;;5.53;;
34711;SDS011;20941;42.408;25.634;2023-09-08T00:58:13;13.15;;;6.28;;
34711;SDS011;20941;42.408;25.634;2023-09-08T01:00:39;15.55;;;5.95;;
34711;SDS011;20941;42.408;25.634;2023-09-08T01:03:05;8.88;;;5.60;;
34711;SDS011;20941;42.408;25.634;2023-09-08T01:05:30;9.02;;;5.40;;
34711;SDS011;20941;42.408;25.634;2023-09-08T01:07:55;12.77;;;6.85;;
34711;SDS011;20941;42.408;25.634;2023-09-08T01:10:21;16.20;;;6.35;;
34711;SDS011;20941;42.408;25.634;2023-09-08T01:12:46;20.00;;;10.85;;
34711;SDS011;20941;42.408;25.634;2023-09-08T01:15:11;22.25;;;13.65;;
34711;SDS011;20941;42.408;25.634;2023-09-08T01:17:37;19.73;;;13.60;;
34711;SDS011;20941;42.408;25.634;2023-09-08T01:25:24;24.25;;;18.83;;
34711;SDS011;20941;42.408;25.634;2023-09-08T01:27:51;27.00;;;15.98;;
34711;SDS011;20941;42.408;25.634;2023-09-08T01:30:17;15.70;;;9.38;;
34711;SDS011;20941;42.408;25.634;2023-09-08T01:32:43;12.20;;;6.35;;
34711;SDS011;20941;42.408;25.634;2023-09-08T01:35:09;13.88;;;5.22;;
34711;SDS011;20941;42.408;25.634;2023-09-08T01:37:35;14.15;;;5.38;;
34711;SDS011;20941;42.408;25.634;2023-09-08T01:40:00;7.78;;;4.03;;
34711;SDS011;20941;42.408;25.634;2023-09-08T01:42:25;11.02;;;4.32;;
34711;SDS011;20941;42.408;25.634;2023-09-08T01:44:51;9.00;;;3.88;;
34711;SDS011;20941;42.408;25.634;2023-09-08T01:47:16;5.55;;;3.90;;
34711;SDS011;20941;42.408;25.634;2023-09-08T01:49:41;7.97;;;4.10;;
34711;SDS011;20941;42.408;25.634;2023-09-08T01:52:07;11.30;;;4.70;;
34711;SDS011;20941;42.408;25.634;2023-09-08T01:54:32;13.80;;;5.43;;
34711;SDS011;20941;42.408;25.634;2023-09-08T01:56:57;7.25;;;5.10;;
34711;SDS011;20941;42.408;25.634;2023-09-08T01:59:23;9.18;;;5.65;;
34711;SDS011;20941;42.408;25.634;2023-09-08T02:01:48;11.75;;;5.95;;
34711;SDS011;20941;42.408;25.634;2023-09-08T02:04:13;11.88;;;6.20;;
34711;SDS011;20941;42.408;25.634;2023-09-08T02:06:39;11.13;;;6.07;;
34711;SDS011;20941;42.408;25.634;2023-09-08T02:09:04;22.08;;;6.60;;
34711;SDS011;20941;42.408;25.634;2023-09-08T02:11:29;14.88;;;6.38;;
34711;SDS011;20941;42.408;25.634;2023-09-08T02:13:55;8.07;;;6.18;;
34711;SDS011;20941;42.408;25.634;2023-09-08T02:19:04;13.77;;;6.22;;
34711;SDS011;20941;42.408;25.634;2023-09-08T02:21:30;10.55;;;6.15;;
34711;SDS011;20941;42.408;25.634;2023-09-08T02:23:55;16.05;;;6.10;;
34711;SDS011;20941;42.408;25.634;2023-09-08T02:26:20;10.30;;;6.28;;
34711;SDS011;20941;42.408;25.634;2023-09-08T02:28:46;10.35;;;6.38;;
34711;SDS011;20941;42.408;25.634;2023-09-08T02:33:55;10.52;;;6.80;;
34711;SDS011;20941;42.408;25.634;2023-09-08T02:36:20;11.90;;;6.80;;
34711;SDS011;20941;42.408;25.634;2023-09-08T02:38:51;12.15;;;7.22;;
34711;SDS011;20941;42.408;25.634;2023-09-08T02:41:16;11.55;;;6.95;;
34711;SDS011;20941;42.408;25.634;2023-09-08T02:43:41;11.93;;;7.80;;
34711;SDS011;20941;42.408;25.634;2023-09-08T02:46:06;10.40;;;6.47;;
34711;SDS011;20941;42.408;25.634;2023-09-08T02:48:34;15.20;;;7.90;;
34711;SDS011;20941;42.408;25.634;2023-09-08T02:50:59;19.30;;;7.32;;
34711;SDS011;20941;42.408;25.634;2023-09-08T02:53:25;14.70;;;6.95;;
34711;SDS011;20941;42.408;25.634;2023-09-08T02:55:53;7.03;;;4.20;;
34711;SDS011;20941;42.408;25.634;2023-09-08T02:58:19;14.27;;;5.32;;
34711;SDS011;20941;42.408;25.634;2023-09-08T03:00:44;10.48;;;3.92;;
34711;SDS011;20941;42.408;25.634;2023-09-08T03:03:09;27.73;;;7.88;;
34711;SDS011;20941;42.408;25.634;2023-09-08T03:05:35;9.88;;;4.00;;
34711;SDS011;20941;42.408;25.634;2023-09-08T03:08:00;6.70;;;3.47;;
34711;SDS011;20941;42.408;25.634;2023-09-08T03:10:25;6.53;;;3.28;;
34711;SDS011;20941;42.408;25.634;2023-09-08T03:12:51;10.82;;;3.80;;
34711;SDS011;20941;42.408;25.634;2023-09-08T03:15:16;5.60;;;2.90;;
34711;SDS011;20941;42.408;25.634;2023-09-08T03:17:41;13.18;;;5.40;;
34711;SDS011;20941;42.408;25.634;2023-09-08T03:20:07;12.32;;;3.85;;
34711;SDS011;20941;42.408;25.634;2023-09-08T03:22:35;15.40;;;4.00;;
34711;SDS011;20941;42.408;25.634;2023-09-08T03:25:00;8.00;;;3.90;;
34711;SDS011;20941;42.408;25.634;2023-09-08T03:27:25;14.05;;;3.45;;
34711;SDS011;20941;42.408;25.634;2023-09-08T03:29:50;7.28;;;2.90;;
34711;SDS011;20941;42.408;25.634;2023-09-08T03:32:16;5.60;;;3.35;;
34711;SDS011;20941;42.408;25.634;2023-09-08T03:34:41;5.82;;;3.10;;
34711;SDS011;20941;42.408;25.634;2023-09-08T03:37:06;7.65;;;3.33;;
34711;SDS011;20941;42.408;25.634;2023-09-08T03:39:32;8.50;;;3.85;;
34711;SDS011;20941;42.408;25.634;2023-09-08T03:41:57;6.53;;;3.63;;
34711;SDS011;20941;42.408;25.634;2023-09-08T03:44:22;11.15;;;4.97;;
34711;SDS011;20941;42.408;25.634;2023-09-08T03:46:48;12.27;;;5.57;;
34711;SDS011;20941;42.408;25.634;2023-09-08T03:49:13;11.70;;;5.00;;
34711;SDS011;20941;42.408;25.634;2023-09-08T03:51:39;11.32;;;4.80;;
34711;SDS011;20941;42.408;25.634;2023-09-08T03:54:04;8.10;;;4.90;;
34711;SDS011;20941;42.408;25.634;2023-09-08T03:56:30;9.85;;;4.85;;
34711;SDS011;20941;42.408;25.634;2023-09-08T03:58:56;11.80;;;4.95;;
34711;SDS011;20941;42.408;25.634;2023-09-08T04:01:21;17.08;;;5.55;;
34711;SDS011;20941;42.408;25.634;2023-09-08T04:03:46;24.88;;;7.25;;
34711;SDS011;20941;42.408;25.634;2023-09-08T04:06:12;15.63;;;6.72;;
34711;SDS011;20941;42.408;25.634;2023-09-08T04:08:37;15.20;;;6.75;;
34711;SDS011;20941;42.408;25.634;2023-09-08T04:11:02;11.80;;;5.70;;
34711;SDS011;20941;42.408;25.634;2023-09-08T04:13:28;10.48;;;5.30;;
34711;SDS011;20941;42.408;25.634;2023-09-08T04:15:53;11.07;;;7.03;;
34711;SDS011;20941;42.408;25.634;2023-09-08T04:18:19;13.80;;;9.18;;
34711;SDS011;20941;42.408;25.634;2023-09-08T04:20:44;22.23;;;9.60;;
34711;SDS011;20941;42.408;25.634;2023-09-08T04:23:09;26.17;;;7.07;;
34711;SDS011;20941;42.408;25.634;2023-09-08T04:25:35;14.95;;;5.68;;
34711;SDS011;20941;42.408;25.634;2023-09-08T04:28:01;19.95;;;5.80;;
34711;SDS011;20941;42.408;25.634;2023-09-08T04:30:27;8.40;;;5.10;;
34711;SDS011;20941;42.408;25.634;2023-09-08T04:32:52;21.80;;;7.65;;
34711;SDS011;20941;42.408;25.634;2023-09-08T04:35:17;15.07;;;6.95;;
34711;SDS011;20941;42.408;25.634;2023-09-08T04:37:43;19.17;;;6.55;;
34711;SDS011;20941;42.408;25.634;2023-09-08T04:40:08;26.13;;;10.18;;
34711;SDS011;20941;42.408;25.634;2023-09-08T04:42:34;22.05;;;13.57;;
34711;SDS011;20941;42.408;25.634;2023-09-08T04:44:59;42.50;;;20.88;;
34711;SDS011;20941;42.408;25.634;2023-09-08T04:47:25;25.50;;;9.02;;
34711;SDS011;20941;42.408;25.634;2023-09-08T04:49:50;34.58;;;11.95;;
34711;SDS011;20941;42.408;25.634;2023-09-08T04:52:15;29.73;;;21.88;;
34711;SDS011;20941;42.408;25.634;2023-09-08T04:54:41;25.77;;;20.02;;
34711;SDS011;20941;42.408;25.634;2023-09-08T04:57:06;30.27;;;19.08;;
34711;SDS011;20941;42.408;25.634;2023-09-08T04:59:31;22.15;;;11.80;;
34711;SDS011;20941;42.408;25.634;2023-09-08T05:01:57;47.10;;;11.95;;
34711;SDS011;20941;42.408;25.634;2023-09-08T05:04:23;21.80;;;7.65;;
34711;SDS011;20941;42.408;25.634;2023-09-08T05:06:48;18.33;;;6.65;;
34711;SDS011;20941;42.408;25.634;2023-09-08T05:09:13;16.65;;;6.63;;
34711;SDS011;20941;42.408;25.634;2023-09-08T05:11:40;23.63;;;12.02;;
34711;SDS011;20941;42.408;25.634;2023-09-08T05:14:05;12.90;;;6.88;;
34711;SDS011;20941;42.408;25.634;2023-09-08T05:16:30;16.10;;;10.63;;
34711;SDS011;20941;42.408;25.634;2023-09-08T05:19:04;16.20;;;7.35;;
34711;SDS011;20941;42.408;25.634;2023-09-08T05:21:30;12.20;;;7.32;;
34711;SDS011;20941;42.408;25.634;2023-09-08T05:23:56;24.50;;;14.82;;
34711;SDS011;20941;42.408;25.634;2023-09-08T05:26:21;24.33;;;17.08;;
34711;SDS011;20941;42.408;25.634;2023-09-08T05:28:47;15.40;;;10.48;;
34711;SDS011;20941;42.408;25.634;2023-09-08T05:31:12;29.23;;;20.50;;
34711;SDS011;20941;42.408;25.634;2023-09-08T05:33:37;17.48;;;11.85;;
34711;SDS011;20941;42.408;25.634;2023-09-08T05:36:03;19.85;;;10.00;;
34711;SDS011;20941;42.408;25.634;2023-09-08T05:38:28;30.75;;;16.67;;
34711;SDS011;20941;42.408;25.634;2023-09-08T05:40:54;19.42;;;13.70;;
34711;SDS011;20941;42.408;25.634;2023-09-08T05:43:19;16.63;;;11.43;;
34711;SDS011;20941;42.408;25.634;2023-09-08T05:45:44;21.42;;;14.13;;
34711;SDS011;20941;42.408;25.634;2023-09-08T05:48:10;15.18;;;10.23;;
34711;SDS011;20941;42.408;25.634;2023-09-08T05:50:36;18.05;;;7.57;;
34711;SDS011;20941;42.408;25.634;2023-09-08T05:53:01;14.10;;;6.82;;
34711;SDS011;20941;42.408;25.634;2023-09-08T05:55:26;25.65;;;8.30;;
34711;SDS011;20941;42.408;25.634;2023-09-08T05:57:52;17.73;;;8.77;;
34711;SDS011;20941;42.408;25.634;2023-09-08T06:00:17;11.73;;;9.23;;
34711;SDS011;20941;42.408;25.634;2023-09-08T06:02:42;12.90;;;6.60;;
34711;SDS011;20941;42.408;25.634;2023-09-08T06:05:08;8.52;;;3.95;;
34711;SDS011;20941;42.408;25.634;2023-09-08T06:07:33;17.35;;;7.32;;
34711;SDS011;20941;42.408;25.634;2023-09-08T06:09:58;15.07;;;6.68;;
34711;SDS011;20941;42.408;25.634;2023-09-08T06:12:24;10.02;;;5.68;;
34711;SDS011;20941;42.408;25.634;2023-09-08T06:14:49;13.15;;;8.88;;
34711;SDS011;20941;42.408;25.634;2023-09-08T06:17:14;15.13;;;5.03;;
34711;SDS011;20941;42.408;25.634;2023-09-08T06:19:40;6.65;;;4.70;;
34711;SDS011;20941;42.408;25.634;2023-09-08T06:22:05;8.70;;;4.78;;
34711;SDS011;20941;42.408;25.634;2023-09-08T06:24:30;7.60;;;5.10;;
34711;SDS011;20941;42.408;25.634;2023-09-08T06:26:56;7.13;;;3.97;;
34711;SDS011;20941;42.408;25.634;2023-09-08T06:29:21;5.45;;;3.50;;
34711;SDS011;20941;42.408;25.634;2023-09-08T06:31:46;3.58;;;3.20;;
34711;SDS011;20941;42.408;25.634;2023-09-08T06:34:12;9.50;;;3.97;;
34711;SDS011;20941;42.408;25.634;2023-09-08T06:36:37;6.88;;;3.30;;
34711;SDS011;20941;42.408;25.634;2023-09-08T06:39:02;6.57;;;3.38;;
34711;SDS011;20941;42.408;25.634;2023-09-08T06:41:29;6.28;;;3.10;;
34711;SDS011;20941;42.408;25.634;2023-09-08T06:43:54;10.20;;;3.70;;
34711;SDS011;20941;42.408;25.634;2023-09-08T06:46:19;8.32;;;3.40;;
34711;SDS011;20941;42.408;25.634;2023-09-08T06:48:45;5.82;;;3.50;;
34711;SDS011;20941;42.408;25.634;2023-09-08T06:51:10;5.88;;;3.33;;
34711;SDS011;20941;42.408;25.634;2023-09-08T06:53:35;3.20;;;2.80;;
34711;SDS011;20941;42.408;25.634;2023-09-08T06:56:01;3.97;;;3.53;;
34711;SDS011;20941;42.408;25.634;2023-09-08T06:58:26;4.47;;;3.42;;
34711;SDS011;20941;42.408;25.634;2023-09-08T07:00:51;17.20;;;3.85;;
34711;SDS011;20941;42.408;25.634;2023-09-08T07:03:19;7.82;;;3.50;;
34711;SDS011;20941;42.408;25.634;2023-09-08T07:05:45;9.38;;;3.70;;
34711;SDS011;20941;42.408;25.634;2023-09-08T07:08:10;10.00;;;4.95;;
34711;SDS011;20941;42.408;25.634;2023-09-08T07:10:35;6.65;;;3.53;;
34711;SDS011;20941;42.408;25.634;2023-09-08T07:13:01;6.47;;;3.58;;
34711;SDS011;20941;42.408;25.634;2023-09-08T07:15:26;6.40;;;3.60;;
34711;SDS011;20941;42.408;25.634;2023-09-08T07:17:51;10.25;;;3.47;;
34711;SDS011;20941;42.408;25.634;2023-09-08T07:20:17;4.85;;;3.17;;
34711;SDS011;20941;42.408;25.634;2023-09-08T07:22:43;6.32;;;3.40;;
34711;SDS011;20941;42.408;25.634;2023-09-08T07:25:08;5.45;;;3.22;;
34711;SDS011;20941;42.408;25.634;2023-09-08T07:27:34;5.85;;;3.42;;
34711;SDS011;20941;42.408;25.634;2023-09-08T07:30:00;6.38;;;3.25;;
34711;SDS011;20941;42.408;25.634;2023-09-08T07:32:25;5.30;;;3.38;;
34711;SDS011;20941;42.408;25.634;2023-09-08T07:34:50;5.63;;;3.40;;
34711;SDS011;20941;42.408;25.634;2023-09-08T07:37:23;7.10;;;3.67;;
34711;SDS011;20941;42.408;25.634;2023-09-08T07:39:49;4.60;;;3.63;;
34711;SDS011;20941;42.408;25.634;2023-09-08T07:42:15;4.50;;;3.67;;
34711;SDS011;20941;42.408;25.634;2023-09-08T07:44:40;4.78;;;3.20;;
34711;SDS011;20941;42.408;25.634;2023-09-08T07:47:05;5.45;;;3.25;;
34711;SDS011;20941;42.408;25.634;2023-09-08T07:49:33;3.88;;;2.97;;
34711;SDS011;20941;42.408;25.634;2023-09-08T07:51:58;3.85;;;3.20;;
34711;SDS011;20941;42.408;25.634;2023-09-08T07:54:23;7.00;;;3.20;;
34711;SDS011;20941;42.408;25.634;2023-09-08T07:56:49;8.45;;;4.25;;
34711;SDS011;20941;42.408;25.634;2023-09-08T07:59:14;5.60;;;3.35;;
34711;SDS011;20941;42.408;25.634;2023-09-08T08:01:39;4.47;;;3.15;;
34711;SDS011;20941;42.408;25.634;2023-09-08T08:04:05;7.38;;;3.22;;
34711;SDS011;20941;42.408;25.634;2023-09-08T08:06:30;4.82;;;3.40;;
34711;SDS011;20941;42.408;25.634;2023-09-08T08:08:55;11.68;;;3.58;;
34711;SDS011;20941;42.408;25.634;2023-09-08T08:11:21;8.73;;;3.53;;
34711;SDS011;20941;42.408;25.634;2023-09-08T08:13:46;5.28;;;3.47;;
34711;SDS011;20941;42.408;25.634;2023-09-08T08:16:12;3.92;;;3.00;;
34711;SDS011;20941;42.408;25.634;2023-09-08T08:18:37;4.18;;;3.42;;
34711;SDS011;20941;42.408;25.634;2023-09-08T08:21:03;6.07;;;2.80;;
34711;SDS011;20941;42.408;25.634;2023-09-08T08:23:29;9.80;;;3.40;;
34711;SDS011;20941;42.408;25.634;2023-09-08T08:25:55;7.80;;;3.50;;
34711;SDS011;20941;42.408;25.634;2023-09-08T08:28:20;5.97;;;3.63;;
34711;SDS011;20941;42.408;25.634;2023-09-08T08:30:45;13.73;;;10.05;;
34711;SDS011;20941;42.408;25.634;2023-09-08T08:33:12;7.00;;;3.78;;
34711;SDS011;20941;42.408;25.634;2023-09-08T08:35:38;5.60;;;3.20;;
34711;SDS011;20941;42.408;25.634;2023-09-08T08:38:04;7.07;;;3.28;;
34711;SDS011;20941;42.408;25.634;2023-09-08T08:40:29;5.82;;;2.95;;
34711;SDS011;20941;42.408;25.634;2023-09-08T08:42:55;3.92;;;3.00;;
34711;SDS011;20941;42.408;25.634;2023-09-08T08:45:22;5.13;;;3.15;;
34711;SDS011;20941;42.408;25.634;2023-09-08T08:47:47;3.45;;;2.80;;
34711;SDS011;20941;42.408;25.634;2023-09-08T08:50:13;4.90;;;3.55;;
34711;SDS011;20941;42.408;25.634;2023-09-08T08:52:39;5.32;;;3.20;;
34711;SDS011;20941;42.408;25.634;2023-09-08T08:55:05;5.00;;;3.35;;
34711;SDS011;20941;42.408;25.634;2023-09-08T08:57:31;5.68;;;3.38;;
34711;SDS011;20941;42.408;25.634;2023-09-08T08:59:57;3.95;;;2.78;;
34711;SDS011;20941;42.408;25.634;2023-09-08T09:02:23;6.95;;;4.00;;
34711;SDS011;20941;42.408;25.634;2023-09-08T09:04:50;9.00;;;3.38;;
34711;SDS011;20941;42.408;25.634;2023-09-08T09:07:16;3.10;;;2.80;;
34711;SDS011;20941;42.408;25.634;2023-09-08T09:09:43;3.80;;;3.35;;
34711;SDS011;20941;42.408;25.634;2023-09-08T09:12:08;6.90;;;3.67;;
34711;SDS011;20941;42.408;25.634;2023-09-08T09:14:34;4.60;;;3.20;;
34711;SDS011;20941;42.408;25.634;2023-09-08T09:17:00;5.20;;;3.30;;
34711;SDS011;20941;42.408;25.634;2023-09-08T09:19:26;3.78;;;2.97;;
34711;SDS011;20941;42.408;25.634;2023-09-08T09:21:56;6.38;;;3.53;;
34711;SDS011;20941;42.408;25.634;2023-09-08T09:26:55;9.73;;;5.18;;
34711;SDS011;20941;42.408;25.634;2023-09-08T09:29:20;8.27;;;3.10;;
34711;SDS011;20941;42.408;25.634;2023-09-08T09:32:05;4.35;;;3.60;;
34711;SDS011;20941;42.408;25.634;2023-09-08T09:34:34;3.47;;;3.17;;
34711;SDS011;20941;42.408;25.634;2023-09-08T09:36:59;3.25;;;2.72;;
34711;SDS011;20941;42.408;25.634;2023-09-08T09:39:25;5.47;;;3.42;;
34711;SDS011;20941;42.408;25.634;2023-09-08T09:41:54;4.78;;;3.38;;
34711;SDS011;20941;42.408;25.634;2023-09-08T09:44:20;4.15;;;3.58;;
34711;SDS011;20941;42.408;25.634;2023-09-08T09:46:46;4.53;;;3.80;;
34711;SDS011;20941;42.408;25.634;2023-09-08T09:49:12;4.45;;;3.50;;
34711;SDS011;20941;42.408;25.634;2023-09-08T09:51:47;5.35;;;3.65;;
34711;SDS011;20941;42.408;25.634;2023-09-08T09:56:38;4.83;;;3.47;;
34711;SDS011;20941;42.408;25.634;2023-09-08T09:59:04;8.48;;;5.20;;
34711;SDS011;20941;42.408;25.634;2023-09-08T10:01:30;9.15;;;4.43;;
34711;SDS011;20941;42.408;25.634;2023-09-08T10:03:56;4.45;;;2.92;;
34711;SDS011;20941;42.408;25.634;2023-09-08T10:06:25;5.35;;;3.55;;
34711;SDS011;20941;42.408;25.634;2023-09-08T10:08:50;4.18;;;3.38;;
34711;SDS011;20941;42.408;25.634;2023-09-08T10:11:16;9.88;;;3.97;;
34711;SDS011;20941;42.408;25.634;2023-09-08T10:13:46;5.53;;;4.00;;
34711;SDS011;20941;42.408;25.634;2023-09-08T10:16:12;8.70;;;4.70;;
34711;SDS011;20941;42.408;25.634;2023-09-08T10:18:41;7.63;;;4.10;;
34711;SDS011;20941;42.408;25.634;2023-09-08T10:21:07;13.32;;;4.13;;
34711;SDS011;20941;42.408;25.634;2023-09-08T10:23:35;7.80;;;4.22;;
34711;SDS011;20941;42.408;25.634;2023-09-08T10:26:02;10.63;;;4.35;;
34711;SDS011;20941;42.408;25.634;2023-09-08T10:28:29;5.20;;;3.85;;
34711;SDS011;20941;42.408;25.634;2023-09-08T10:30:56;5.35;;;3.65;;
34711;SDS011;20941;42.408;25.634;2023-09-08T10:33:22;8.48;;;3.42;;
34711;SDS011;20941;42.408;25.634;2023-09-08T10:35:49;15.40;;;3.70;;
34711;SDS011;20941;42.408;25.634;2023-09-08T10:38:33;6.55;;;3.72;;
34711;SDS011;20941;42.408;25.634;2023-09-08T10:43:54;5.28;;;3.63;;
34711;SDS011;20941;42.408;25.634;2023-09-08T10:46:26;4.45;;;3.70;;
34711;SDS011;20941;42.408;25.634;2023-09-08T10:48:55;4.50;;;3.72;;
34711;SDS011;20941;42.408;25.634;2023-09-08T10:51:26;6.13;;;4.13;;
34711;SDS011;20941;42.408;25.634;2023-09-08T10:53:51;8.70;;;4.13;;
34711;SDS011;20941;42.408;25.634;2023-09-08T10:56:17;6.32;;;3.58;;
34711;SDS011;20941;42.408;25.634;2023-09-08T10:58:43;6.55;;;3.97;;
34711;SDS011;20941;42.408;25.634;2023-09-08T11:01:15;8.55;;;3.70;;
34711;SDS011;20941;42.408;25.634;2023-09-08T11:06:24;21.67;;;7.85;;
34711;SDS011;20941;42.408;25.634;2023-09-08T11:08:55;12.27;;;8.07;;
34711;SDS011;20941;42.408;25.634;2023-09-08T11:11:21;10.45;;;5.43;;
34711;SDS011;20941;42.408;25.634;2023-09-08T11:13:46;5.13;;;3.60;;
34711;SDS011;20941;42.408;25.634;2023-09-08T11:16:12;6.97;;;3.88;;
34711;SDS011;20941;42.408;25.634;2023-09-08T11:18:38;4.50;;;3.63;;
34711;SDS011;20941;42.408;25.634;2023-09-08T11:21:06;5.75;;;4.05;;
34711;SDS011;20941;42.408;25.634;2023-09-08T11:23:32;5.55;;;3.72;;
34711;SDS011;20941;42.408;25.634;2023-09-08T11:25:58;6.50;;;3.80;;
34711;SDS011;20941;42.408;25.634;2023-09-08T11:28:24;6.95;;;3.60;;
34711;SDS011;20941;42.408;25.634;2023-09-08T11:30:52;7.15;;;3.72;;
34711;SDS011;20941;42.408;25.634;2023-09-08T11:33:19;4.13;;;3.72;;
34711;SDS011;20941;42.408;25.634;2023-09-08T11:35:48;5.03;;;3.88;;
34711;SDS011;20941;42.408;25.634;2023-09-08T11:38:14;8.52;;;4.07;;
34711;SDS011;20941;42.408;25.634;2023-09-08T11:40:39;6.65;;;3.72;;
34711;SDS011;20941;42.408;25.634;2023-09-08T11:43:05;10.85;;;3.70;;
34711;SDS011;20941;42.408;25.634;2023-09-08T11:45:33;4.72;;;3.75;;
34711;SDS011;20941;42.408;25.634;2023-09-08T11:47:59;4.97;;;3.95;;
34711;SDS011;20941;42.408;25.634;2023-09-08T11:50:24;6.18;;;3.50;;
34711;SDS011;20941;42.408;25.634;2023-09-08T11:52:51;6.75;;;4.07;;
34711;SDS011;20941;42.408;25.634;2023-09-08T11:55:17;6.80;;;3.67;;
34711;SDS011;20941;42.408;25.634;2023-09-08T11:57:43;7.50;;;3.40;;
34711;SDS011;20941;42.408;25.634;2023-09-08T12:00:10;4.40;;;3.50;;
34711;SDS011;20941;42.408;25.634;2023-09-08T12:02:39;9.73;;;3.78;;
34711;SDS011;20941;42.408;25.634;2023-09-08T12:05:05;6.10;;;3.38;;
34711;SDS011;20941;42.408;25.634;2023-09-08T12:07:30;5.32;;;3.20;;
34711;SDS011;20941;42.408;25.634;2023-09-08T12:09:56;3.90;;;3.30;;
34711;SDS011;20941;42.408;25.634;2023-09-08T12:12:23;4.80;;;3.65;;
34711;SDS011;20941;42.408;25.634;2023-09-08T12:14:49;7.00;;;3.10;;
34711;SDS011;20941;42.408;25.634;2023-09-08T12:17:14;8.65;;;3.33;;
34711;SDS011;20941;42.408;25.634;2023-09-08T12:19:42;9.32;;;3.45;;
34711;SDS011;20941;42.408;25.634;2023-09-08T12:22:07;5.38;;;3.30;;
34711;SDS011;20941;42.408;25.634;2023-09-08T12:24:46;8.80;;;3.30;;
34711;SDS011;20941;42.408;25.634;2023-09-08T12:27:12;5.40;;;2.63;;
34711;SDS011;20941;42.408;25.634;2023-09-08T12:29:38;8.05;;;3.13;;
34711;SDS011;20941;42.408;25.634;2023-09-08T12:32:03;6.30;;;3.25;;
34711;SDS011;20941;42.408;25.634;2023-09-08T12:34:28;10.32;;;3.42;;
34711;SDS011;20941;42.408;25.634;2023-09-08T12:36:55;8.45;;;3.10;;
34711;SDS011;20941;42.408;25.634;2023-09-08T12:39:20;28.83;;;3.97;;
34711;SDS011;20941;42.408;25.634;2023-09-08T12:41:45;6.20;;;3.13;;
34711;SDS011;20941;42.408;25.634;2023-09-08T12:44:11;3.80;;;3.00;;
34711;SDS011;20941;42.408;25.634;2023-09-08T12:46:36;3.42;;;3.10;;
34711;SDS011;20941;42.408;25.634;2023-09-08T12:49:01;6.28;;;3.20;;
34711;SDS011;20941;42.408;25.634;2023-09-08T12:51:27;5.63;;;3.85;;
34711;SDS011;20941;42.408;25.634;2023-09-08T12:53:52;5.28;;;3.35;;
34711;SDS011;20941;42.408;25.634;2023-09-08T12:56:17;5.00;;;3.13;;
34711;SDS011;20941;42.408;25.634;2023-09-08T12:58:43;11.80;;;3.90;;
34711;SDS011;20941;42.408;25.634;2023-09-08T13:01:08;4.18;;;2.97;;
34711;SDS011;20941;42.408;25.634;2023-09-08T13:03:34;4.28;;;2.90;;
34711;SDS011;20941;42.408;25.634;2023-09-08T13:05:59;9.00;;;3.60;;
34711;SDS011;20941;42.408;25.634;2023-09-08T13:08:24;10.02;;;3.67;;
34711;SDS011;20941;42.408;25.634;2023-09-08T13:10:50;5.07;;;3.35;;
34711;SDS011;20941;42.408;25.634;2023-09-08T13:13:16;5.22;;;3.00;;
34711;SDS011;20941;42.408;25.634;2023-09-08T13:15:41;6.60;;;3.53;;
34711;SDS011;20941;42.408;25.634;2023-09-08T13:18:07;5.00;;;3.00;;
34711;SDS011;20941;42.408;25.634;2023-09-08T13:20:33;7.00;;;3.63;;
34711;SDS011;20941;42.408;25.634;2023-09-08T13:22:58;5.30;;;3.22;;
34711;SDS011;20941;42.408;25.634;2023-09-08T13:25:23;3.67;;;3.22;;
34711;SDS011;20941;42.408;25.634;2023-09-08T13:27:49;12.20;;;3.63;;
34711;SDS011;20941;42.408;25.634;2023-09-08T13:30:14;6.57;;;3.63;;
34711;SDS011;20941;42.408;25.634;2023-09-08T13:32:40;8.23;;;3.25;;
34711;SDS011;20941;42.408;25.634;2023-09-08T13:35:05;8.38;;;3.55;;
34711;SDS011;20941;42.408;25.634;2023-09-08T13:37:31;6.75;;;3.53;;
34711;SDS011;20941;42.408;25.634;2023-09-08T13:39:57;8.00;;;3.70;;
34711;SDS011;20941;42.408;25.634;2023-09-08T13:42:22;7.82;;;3.65;;
34711;SDS011;20941;42.408;25.634;2023-09-08T13:44:47;5.45;;;3.35;;
34711;SDS011;20941;42.408;25.634;2023-09-08T13:47:13;8.30;;;3.35;;
34711;SDS011;20941;42.408;25.634;2023-09-08T13:49:38;8.20;;;4.05;;
34711;SDS011;20941;42.408;25.634;2023-09-08T13:52:04;6.75;;;3.30;;
34711;SDS011;20941;42.408;25.634;2023-09-08T13:54:29;7.22;;;3.33;;
34711;SDS011;20941;42.408;25.634;2023-09-08T13:56:58;6.38;;;3.00;;
34711;SDS011;20941;42.408;25.634;2023-09-08T13:59:25;4.40;;;3.50;;
34711;SDS011;20941;42.408;25.634;2023-09-08T14:01:50;4.00;;;3.15;;
34711;SDS011;20941;42.408;25.634;2023-09-08T14:04:16;4.50;;;3.42;;
34711;SDS011;20941;42.408;25.634;2023-09-08T14:06:41;4.93;;;3.08;;
34711;SDS011;20941;42.408;25.634;2023-09-08T14:09:07;5.25;;;3.42;;
34711;SDS011;20941;42.408;25.634;2023-09-08T14:11:32;6.07;;;3.05;;
34711;SDS011;20941;42.408;25.634;2023-09-08T14:13:57;5.85;;;3.35;;
34711;SDS011;20941;42.408;25.634;2023-09-08T14:16:23;7.32;;;3.40;;
34711;SDS011;20941;42.408;25.634;2023-09-08T14:18:48;6.13;;;3.40;;
34711;SDS011;20941;42.408;25.634;2023-09-08T14:21:13;5.45;;;3.05;;
34711;SDS011;20941;42.408;25.634;2023-09-08T14:23:39;5.05;;;3.47;;
34711;SDS011;20941;42.408;25.634;2023-09-08T14:26:05;8.15;;;3.35;;
34711;SDS011;20941;42.408;25.634;2023-09-08T14:28:31;6.07;;;2.92;;
34711;SDS011;20941;42.408;25.634;2023-09-08T14:30:59;10.82;;;3.67;;
34711;SDS011;20941;42.408;25.634;2023-09-08T14:33:25;4.45;;;3.28;;
34711;SDS011;20941;42.408;25.634;2023-09-08T14:35:50;9.13;;;3.58;;
34711;SDS011;20941;42.408;25.634;2023-09-08T14:38:19;4.60;;;3.05;;
34711;SDS011;20941;42.408;25.634;2023-09-08T14:40:45;3.67;;;3.20;;